sensor_id;sensor_type;location;lat;lon;timestamp;temperature;humidity
24382;DHT22;12502;50.678;7.172;2023-08-08T00:01:13;13.00;99.90
24382;DHT22;12502;50.678;7.172;2023-08-08T00:06:15;12.90;99.90
24382;DHT22;12502;50.678;7.172;2023-08-08T00:11:18;12.80;99.90
24382;DHT22;12502;50.678;7.172;2023-08-08T00:16:38;12.80;99.90
24382;DHT22;12502;50.678;7.172;2023-08-08T00:21:41;12.80;99.90
24382;DHT22;12502;50.678;7.172;2023-08-08T00:26:42;12.80;99.90
24382;DHT22;12502;50.678;7.172;2023-08-08T00:36:49;12.80;99.90
24382;DHT22;12502;50.678;7.172;2023-08-08T00:41:50;12.80;99.90
24382;DHT22;12502;50.678;7.172;2023-08-08T00:46:52;12.70;99.90
24382;DHT22;12502;50.678;7.172;2023-08-08T00:51:54;12.70;99.90
24382;DHT22;12502;50.678;7.172;2023-08-08T00:56:55;12.80;99.90
24382;DHT22;12502;50.678;7.172;2023-08-08T01:01:58;12.60;99.90
24382;DHT22;12502;50.678;7.172;2023-08-08T01:07:03;12.60;99.90
24382;DHT22;12502;50.678;7.172;2023-08-08T01:12:09;12.50;99.90
24382;DHT22;12502;50.678;7.172;2023-08-08T01:17:13;12.60;99.90
24382;DHT22;12502;50.678;7.172;2023-08-08T01:22:22;12.60;99.90
24382;DHT22;12502;50.678;7.172;2023-08-08T01:27:25;12.60;99.90
24382;DHT22;12502;50.678;7.172;2023-08-08T01:32:27;12.60;99.90
24382;DHT22;12502;50.678;7.172;2023-08-08T01:37:30;12.50;99.90
24382;DHT22;12502;50.678;7.172;2023-08-08T01:42:33;12.60;99.90
24382;DHT22;12502;50.678;7.172;2023-08-08T01:47:35;12.50;99.90
24382;DHT22;12502;50.678;7.172;2023-08-08T01:52:39;12.30;99.90
24382;DHT22;12502;50.678;7.172;2023-08-08T01:57:49;12.20;99.90
24382;DHT22;12502;50.678;7.172;2023-08-08T02:02:51;12.40;99.90
24382;DHT22;12502;50.678;7.172;2023-08-08T02:07:53;12.30;99.90
24382;DHT22;12502;50.678;7.172;2023-08-08T02:12:55;12.10;99.90
24382;DHT22;12502;50.678;7.172;2023-08-08T02:17:57;12.00;99.90
24382;DHT22;12502;50.678;7.172;2023-08-08T02:23:19;11.90;99.90
24382;DHT22;12502;50.678;7.172;2023-08-08T02:28:20;11.90;99.90
24382;DHT22;12502;50.678;7.172;2023-08-08T02:33:25;11.80;99.90
24382;DHT22;12502;50.678;7.172;2023-08-08T02:38:27;11.60;99.90
24382;DHT22;12502;50.678;7.172;2023-08-08T02:43:29;11.50;99.90
24382;DHT22;12502;50.678;7.172;2023-08-08T02:48:32;11.40;99.90
24382;DHT22;12502;50.678;7.172;2023-08-08T02:53:33;11.40;99.90
24382;DHT22;12502;50.678;7.172;2023-08-08T02:58:35;11.40;99.90
24382;DHT22;12502;50.678;7.172;2023-08-08T03:03:37;11.20;99.90
24382;DHT22;12502;50.678;7.172;2023-08-08T03:08:40;11.30;99.90
24382;DHT22;12502;50.678;7.172;2023-08-08T03:13:42;11.20;99.90
24382;DHT22;12502;50.678;7.172;2023-08-08T03:18:43;11.50;99.90
24382;DHT22;12502;50.678;7.172;2023-08-08T03:23:46;11.60;99.90
24382;DHT22;12502;50.678;7.172;2023-08-08T03:28:49;11.70;99.90
24382;DHT22;12502;50.678;7.172;2023-08-08T03:33:52;11.80;99.90
24382;DHT22;12502;50.678;7.172;2023-08-08T03:38:54;11.80;99.90
24382;DHT22;12502;50.678;7.172;2023-08-08T03:43:57;11.80;99.90
24382;DHT22;12502;50.678;7.172;2023-08-08T03:48:58;11.80;99.90
24382;DHT22;12502;50.678;7.172;2023-08-08T03:54:00;11.80;99.90
24382;DHT22;12502;50.678;7.172;2023-08-08T03:59:02;11.80;99.90
24382;DHT22;12502;50.678;7.172;2023-08-08T04:04:04;11.80;99.90
24382;DHT22;12502;50.678;7.172;2023-08-08T04:09:06;11.90;99.90
24382;DHT22;12502;50.678;7.172;2023-08-08T04:19:26;11.90;99.90
24382;DHT22;12502;50.678;7.172;2023-08-08T04:24:28;12.00;99.90
24382;DHT22;12502;50.678;7.172;2023-08-08T04:29:29;12.10;99.90
24382;DHT22;12502;50.678;7.172;2023-08-08T04:34:31;12.00;99.90
24382;DHT22;12502;50.678;7.172;2023-08-08T04:39:33;11.90;99.90
24382;DHT22;12502;50.678;7.172;2023-08-08T04:44:35;12.00;99.90
24382;DHT22;12502;50.678;7.172;2023-08-08T04:49:36;11.90;99.90
24382;DHT22;12502;50.678;7.172;2023-08-08T04:54:38;12.00;99.90
24382;DHT22;12502;50.678;7.172;2023-08-08T04:59:40;12.10;99.90
24382;DHT22;12502;50.678;7.172;2023-08-08T05:04:41;12.20;99.90
24382;DHT22;12502;50.678;7.172;2023-08-08T05:09:43;12.20;99.90
24382;DHT22;12502;50.678;7.172;2023-08-08T05:14:45;12.30;99.90
24382;DHT22;12502;50.678;7.172;2023-08-08T05:19:46;12.30;99.90
24382;DHT22;12502;50.678;7.172;2023-08-08T05:24:48;12.40;99.90
24382;DHT22;12502;50.678;7.172;2023-08-08T05:29:50;12.50;99.90
24382;DHT22;12502;50.678;7.172;2023-08-08T05:34:51;12.60;99.90
24382;DHT22;12502;50.678;7.172;2023-08-08T05:39:53;12.70;99.90
24382;DHT22;12502;50.678;7.172;2023-08-08T05:44:55;12.80;99.90
24382;DHT22;12502;50.678;7.172;2023-08-08T05:49:57;12.90;99.90
24382;DHT22;12502;50.678;7.172;2023-08-08T05:54:58;13.00;99.90
24382;DHT22;12502;50.678;7.172;2023-08-08T06:00:00;13.10;99.90
24382;DHT22;12502;50.678;7.172;2023-08-08T06:05:04;13.30;99.90
24382;DHT22;12502;50.678;7.172;2023-08-08T06:10:06;13.30;99.90
24382;DHT22;12502;50.678;7.172;2023-08-08T06:15:09;13.60;99.90
24382;DHT22;12502;50.678;7.172;2023-08-08T06:20:11;13.80;99.90
24382;DHT22;12502;50.678;7.172;2023-08-08T06:25:15;14.00;99.90
24382;DHT22;12502;50.678;7.172;2023-08-08T06:30:17;14.10;99.90
24382;DHT22;12502;50.678;7.172;2023-08-08T06:35:18;14.20;99.90
24382;DHT22;12502;50.678;7.172;2023-08-08T06:40:20;14.20;99.90
24382;DHT22;12502;50.678;7.172;2023-08-08T06:45:22;14.30;99.90
24382;DHT22;12502;50.678;7.172;2023-08-08T06:50:25;14.30;99.90
24382;DHT22;12502;50.678;7.172;2023-08-08T06:55:27;14.30;99.90
24382;DHT22;12502;50.678;7.172;2023-08-08T07:00:29;14.30;99.90
24382;DHT22;12502;50.678;7.172;2023-08-08T07:05:31;14.40;99.90
24382;DHT22;12502;50.678;7.172;2023-08-08T07:10:33;14.60;99.90
24382;DHT22;12502;50.678;7.172;2023-08-08T07:15:34;15.00;99.90
24382;DHT22;12502;50.678;7.172;2023-08-08T07:20:36;15.10;99.90
24382;DHT22;12502;50.678;7.172;2023-08-08T07:25:38;15.20;99.90
24382;DHT22;12502;50.678;7.172;2023-08-08T07:30:40;15.60;99.90
24382;DHT22;12502;50.678;7.172;2023-08-08T07:35:42;15.90;99.90
24382;DHT22;12502;50.678;7.172;2023-08-08T07:40:43;16.30;99.90
24382;DHT22;12502;50.678;7.172;2023-08-08T07:45:48;16.50;99.90
24382;DHT22;12502;50.678;7.172;2023-08-08T07:50:50;16.60;99.90
24382;DHT22;12502;50.678;7.172;2023-08-08T07:55:52;16.70;99.90
24382;DHT22;12502;50.678;7.172;2023-08-08T08:00:54;16.90;99.90
24382;DHT22;12502;50.678;7.172;2023-08-08T08:05:57;17.00;99.90
24382;DHT22;12502;50.678;7.172;2023-08-08T08:10:59;17.10;99.90
24382;DHT22;12502;50.678;7.172;2023-08-08T08:16:02;17.10;99.90
24382;DHT22;12502;50.678;7.172;2023-08-08T08:21:04;17.10;99.90
24382;DHT22;12502;50.678;7.172;2023-08-08T08:26:06;17.30;99.90
24382;DHT22;12502;50.678;7.172;2023-08-08T08:31:08;17.40;99.90
24382;DHT22;12502;50.678;7.172;2023-08-08T08:36:10;17.30;99.90
24382;DHT22;12502;50.678;7.172;2023-08-08T08:41:15;17.60;99.90
24382;DHT22;12502;50.678;7.172;2023-08-08T08:46:20;17.70;99.90
24382;DHT22;12502;50.678;7.172;2023-08-08T08:51:22;17.90;99.90
24382;DHT22;12502;50.678;7.172;2023-08-08T08:56:23;17.80;99.90
24382;DHT22;12502;50.678;7.172;2023-08-08T09:01:35;17.80;99.90
24382;DHT22;12502;50.678;7.172;2023-08-08T09:06:37;17.80;99.90
24382;DHT22;12502;50.678;7.172;2023-08-08T09:11:40;17.90;99.90
24382;DHT22;12502;50.678;7.172;2023-08-08T09:16:42;17.90;99.90
24382;DHT22;12502;50.678;7.172;2023-08-08T09:21:44;18.20;99.90
24382;DHT22;12502;50.678;7.172;2023-08-08T09:26:46;18.20;99.90
24382;DHT22;12502;50.678;7.172;2023-08-08T09:31:47;18.20;99.90
24382;DHT22;12502;50.678;7.172;2023-08-08T09:36:50;18.20;99.90
24382;DHT22;12502;50.678;7.172;2023-08-08T09:41:53;18.20;99.90
24382;DHT22;12502;50.678;7.172;2023-08-08T09:46:55;18.20;99.90
24382;DHT22;12502;50.678;7.172;2023-08-08T09:51:56;18.20;99.90
24382;DHT22;12502;50.678;7.172;2023-08-08T09:57:02;18.20;99.90
24382;DHT22;12502;50.678;7.172;2023-08-08T10:02:06;18.40;99.90
24382;DHT22;12502;50.678;7.172;2023-08-08T10:07:11;18.50;99.90
24382;DHT22;12502;50.678;7.172;2023-08-08T10:12:13;18.60;99.90
24382;DHT22;12502;50.678;7.172;2023-08-08T10:17:15;18.70;99.90
24382;DHT22;12502;50.678;7.172;2023-08-08T10:22:20;18.90;99.90
24382;DHT22;12502;50.678;7.172;2023-08-08T10:27:30;18.80;99.90
24382;DHT22;12502;50.678;7.172;2023-08-08T10:32:39;18.40;99.90
24382;DHT22;12502;50.678;7.172;2023-08-08T10:37:52;18.50;99.90
24382;DHT22;12502;50.678;7.172;2023-08-08T10:42:55;18.60;99.90
24382;DHT22;12502;50.678;7.172;2023-08-08T10:48:06;18.80;99.90
24382;DHT22;12502;50.678;7.172;2023-08-08T10:53:18;18.80;99.90
24382;DHT22;12502;50.678;7.172;2023-08-08T10:58:37;18.80;99.90
24382;DHT22;12502;50.678;7.172;2023-08-08T11:03:40;18.70;99.90
24382;DHT22;12502;50.678;7.172;2023-08-08T11:08:42;18.60;99.90
24382;DHT22;12502;50.678;7.172;2023-08-08T11:13:44;18.70;99.90
24382;DHT22;12502;50.678;7.172;2023-08-08T11:18:46;18.80;99.90
24382;DHT22;12502;50.678;7.172;2023-08-08T11:23:48;19.00;99.90
24382;DHT22;12502;50.678;7.172;2023-08-08T11:28:51;18.80;99.90
24382;DHT22;12502;50.678;7.172;2023-08-08T11:33:56;18.70;99.90
24382;DHT22;12502;50.678;7.172;2023-08-08T11:38:59;18.60;99.90
24382;DHT22;12502;50.678;7.172;2023-08-08T11:44:03;18.60;99.90
24382;DHT22;12502;50.678;7.172;2023-08-08T11:49:05;18.70;99.90
24382;DHT22;12502;50.678;7.172;2023-08-08T11:54:09;18.70;99.90
24382;DHT22;12502;50.678;7.172;2023-08-08T11:59:12;18.70;99.90
24382;DHT22;12502;50.678;7.172;2023-08-08T12:04:14;18.40;99.90
24382;DHT22;12502;50.678;7.172;2023-08-08T12:09:19;18.20;99.90
24382;DHT22;12502;50.678;7.172;2023-08-08T12:14:28;18.10;99.90
24382;DHT22;12502;50.678;7.172;2023-08-08T12:19:31;18.10;99.90
24382;DHT22;12502;50.678;7.172;2023-08-08T12:24:38;18.10;99.90
24382;DHT22;12502;50.678;7.172;2023-08-08T12:35:22;18.40;99.90
24382;DHT22;12502;50.678;7.172;2023-08-08T12:40:24;18.60;99.90
24382;DHT22;12502;50.678;7.172;2023-08-08T12:45:26;18.90;99.90
24382;DHT22;12502;50.678;7.172;2023-08-08T12:50:28;18.70;99.90
24382;DHT22;12502;50.678;7.172;2023-08-08T12:55:31;18.50;99.90
24382;DHT22;12502;50.678;7.172;2023-08-08T13:00:34;18.30;99.90
24382;DHT22;12502;50.678;7.172;2023-08-08T13:05:36;18.20;99.90
24382;DHT22;12502;50.678;7.172;2023-08-08T13:10:39;18.10;99.90
24382;DHT22;12502;50.678;7.172;2023-08-08T13:15:41;17.90;99.90
24382;DHT22;12502;50.678;7.172;2023-08-08T13:20:43;17.80;99.90
24382;DHT22;12502;50.678;7.172;2023-08-08T13:25:44;17.80;99.90
24382;DHT22;12502;50.678;7.172;2023-08-08T13:30:46;17.80;99.90
24382;DHT22;12502;50.678;7.172;2023-08-08T13:40:54;17.80;99.90
24382;DHT22;12502;50.678;7.172;2023-08-08T13:45:57;17.80;99.90
24382;DHT22;12502;50.678;7.172;2023-08-08T13:50:59;17.90;99.90
24382;DHT22;12502;50.678;7.172;2023-08-08T13:56:02;17.90;99.90
24382;DHT22;12502;50.678;7.172;2023-08-08T14:06:10;18.00;99.90
24382;DHT22;12502;50.678;7.172;2023-08-08T14:11:21;17.90;99.90
24382;DHT22;12502;50.678;7.172;2023-08-08T14:21:44;18.00;99.90
24382;DHT22;12502;50.678;7.172;2023-08-08T14:26:46;18.00;99.90
24382;DHT22;12502;50.678;7.172;2023-08-08T14:31:50;18.20;99.90
24382;DHT22;12502;50.678;7.172;2023-08-08T14:37:02;18.20;99.90
24382;DHT22;12502;50.678;7.172;2023-08-08T14:42:05;18.50;99.90
24382;DHT22;12502;50.678;7.172;2023-08-08T14:47:11;18.50;99.90
24382;DHT22;12502;50.678;7.172;2023-08-08T14:52:15;18.60;99.90
24382;DHT22;12502;50.678;7.172;2023-08-08T14:57:18;18.50;99.90
24382;DHT22;12502;50.678;7.172;2023-08-08T15:02:21;18.30;99.90
24382;DHT22;12502;50.678;7.172;2023-08-08T15:07:22;18.40;99.90
24382;DHT22;12502;50.678;7.172;2023-08-08T15:12:26;18.60;99.90
24382;DHT22;12502;50.678;7.172;2023-08-08T15:17:45;18.80;99.90
24382;DHT22;12502;50.678;7.172;2023-08-08T15:22:47;19.00;99.90
24382;DHT22;12502;50.678;7.172;2023-08-08T15:27:50;19.00;99.90
24382;DHT22;12502;50.678;7.172;2023-08-08T15:32:52;18.90;99.90
24382;DHT22;12502;50.678;7.172;2023-08-08T15:37:57;18.70;99.90
24382;DHT22;12502;50.678;7.172;2023-08-08T15:43:04;18.70;99.90
24382;DHT22;12502;50.678;7.172;2023-08-08T15:48:06;18.70;99.90
24382;DHT22;12502;50.678;7.172;2023-08-08T15:53:08;18.70;99.90
24382;DHT22;12502;50.678;7.172;2023-08-08T15:58:11;18.60;99.90
24382;DHT22;12502;50.678;7.172;2023-08-08T16:03:13;18.60;99.90
24382;DHT22;12502;50.678;7.172;2023-08-08T16:08:15;18.50;99.90
24382;DHT22;12502;50.678;7.172;2023-08-08T16:13:19;18.50;99.90
24382;DHT22;12502;50.678;7.172;2023-08-08T16:18:21;18.60;99.90
24382;DHT22;12502;50.678;7.172;2023-08-08T16:23:22;18.40;99.90
24382;DHT22;12502;50.678;7.172;2023-08-08T16:28:24;18.30;99.90
24382;DHT22;12502;50.678;7.172;2023-08-08T16:33:27;18.30;99.90
24382;DHT22;12502;50.678;7.172;2023-08-08T16:38:29;18.30;99.90
24382;DHT22;12502;50.678;7.172;2023-08-08T16:43:34;18.30;99.90
24382;DHT22;12502;50.678;7.172;2023-08-08T16:48:36;18.20;99.90
24382;DHT22;12502;50.678;7.172;2023-08-08T16:53:38;18.10;99.90
24382;DHT22;12502;50.678;7.172;2023-08-08T16:58:39;18.10;99.90
24382;DHT22;12502;50.678;7.172;2023-08-08T17:03:42;18.10;99.90
24382;DHT22;12502;50.678;7.172;2023-08-08T17:08:44;18.00;99.90
24382;DHT22;12502;50.678;7.172;2023-08-08T17:13:46;18.00;99.90
24382;DHT22;12502;50.678;7.172;2023-08-08T17:18:49;18.00;99.90
24382;DHT22;12502;50.678;7.172;2023-08-08T17:23:51;18.00;99.90
24382;DHT22;12502;50.678;7.172;2023-08-08T17:28:53;18.10;99.90
24382;DHT22;12502;50.678;7.172;2023-08-08T17:33:54;18.20;99.90
24382;DHT22;12502;50.678;7.172;2023-08-08T17:38:59;18.20;99.90
24382;DHT22;12502;50.678;7.172;2023-08-08T17:44:01;18.20;99.90
24382;DHT22;12502;50.678;7.172;2023-08-08T17:49:03;18.20;99.90
24382;DHT22;12502;50.678;7.172;2023-08-08T17:54:05;18.20;99.90
24382;DHT22;12502;50.678;7.172;2023-08-08T17:59:09;18.10;99.90
24382;DHT22;12502;50.678;7.172;2023-08-08T18:04:24;18.10;99.90
24382;DHT22;12502;50.678;7.172;2023-08-08T18:09:29;18.00;99.90
24382;DHT22;12502;50.678;7.172;2023-08-08T18:19:52;17.80;99.90
24382;DHT22;12502;50.678;7.172;2023-08-08T18:24:55;17.90;99.90
24382;DHT22;12502;50.678;7.172;2023-08-08T18:29:58;17.80;99.90
24382;DHT22;12502;50.678;7.172;2023-08-08T18:35:00;17.80;99.90
24382;DHT22;12502;50.678;7.172;2023-08-08T18:45:16;17.80;99.90
24382;DHT22;12502;50.678;7.172;2023-08-08T18:50:18;17.70;99.90
24382;DHT22;12502;50.678;7.172;2023-08-08T18:55:20;17.60;99.90
24382;DHT22;12502;50.678;7.172;2023-08-08T19:00:27;17.60;99.90
24382;DHT22;12502;50.678;7.172;2023-08-08T19:05:28;17.60;99.90
24382;DHT22;12502;50.678;7.172;2023-08-08T19:10:33;17.50;99.90
24382;DHT22;12502;50.678;7.172;2023-08-08T19:21:21;17.40;99.90
24382;DHT22;12502;50.678;7.172;2023-08-08T19:26:30;17.30;99.90
24382;DHT22;12502;50.678;7.172;2023-08-08T19:31:34;17.20;99.90
24382;DHT22;12502;50.678;7.172;2023-08-08T19:36:38;17.20;99.90
24382;DHT22;12502;50.678;7.172;2023-08-08T19:41:41;17.20;99.90
24382;DHT22;12502;50.678;7.172;2023-08-08T19:46:43;17.10;99.90
24382;DHT22;12502;50.678;7.172;2023-08-08T19:51:45;17.20;99.90
24382;DHT22;12502;50.678;7.172;2023-08-08T19:56:46;17.10;99.90
24382;DHT22;12502;50.678;7.172;2023-08-08T20:02:01;17.00;99.90
24382;DHT22;12502;50.678;7.172;2023-08-08T20:07:05;16.90;99.90
24382;DHT22;12502;50.678;7.172;2023-08-08T20:12:06;16.70;99.90
24382;DHT22;12502;50.678;7.172;2023-08-08T20:22:29;16.50;99.90
24382;DHT22;12502;50.678;7.172;2023-08-08T20:27:31;16.50;99.90
24382;DHT22;12502;50.678;7.172;2023-08-08T20:32:35;16.50;99.90
24382;DHT22;12502;50.678;7.172;2023-08-08T20:37:47;16.40;99.90
24382;DHT22;12502;50.678;7.172;2023-08-08T20:43:06;16.40;99.90
24382;DHT22;12502;50.678;7.172;2023-08-08T20:48:08;16.40;99.90
24382;DHT22;12502;50.678;7.172;2023-08-08T20:53:18;16.40;99.90
24382;DHT22;12502;50.678;7.172;2023-08-08T20:58:25;16.30;99.90
24382;DHT22;12502;50.678;7.172;2023-08-08T21:03:32;16.30;99.90
24382;DHT22;12502;50.678;7.172;2023-08-08T21:19:26;16.00;99.90
24382;DHT22;12502;50.678;7.172;2023-08-08T21:24:28;16.00;99.90
24382;DHT22;12502;50.678;7.172;2023-08-08T21:29:39;15.80;99.90
24382;DHT22;12502;50.678;7.172;2023-08-08T21:46:20;15.40;99.90
24382;DHT22;12502;50.678;7.172;2023-08-08T21:56:37;15.30;99.90
24382;DHT22;12502;50.678;7.172;2023-08-08T22:07:06;15.20;99.90
24382;DHT22;12502;50.678;7.172;2023-08-08T22:17:17;15.20;99.90
24382;DHT22;12502;50.678;7.172;2023-08-08T22:33:06;15.10;99.90
24382;DHT22;12502;50.678;7.172;2023-08-08T22:43:26;15.10;99.90
24382;DHT22;12502;50.678;7.172;2023-08-08T22:53:55;15.00;99.90
24382;DHT22;12502;50.678;7.172;2023-08-08T22:59:09;15.10;99.90
24382;DHT22;12502;50.678;7.172;2023-08-08T23:04:10;15.00;99.90
24382;DHT22;12502;50.678;7.172;2023-08-08T23:09:17;15.10;99.90
24382;DHT22;12502;50.678;7.172;2023-08-08T23:14:25;15.00;99.90
24382;DHT22;12502;50.678;7.172;2023-08-08T23:25:00;15.00;99.90
24382;DHT22;12502;50.678;7.172;2023-08-08T23:40:15;15.00;99.90
24382;DHT22;12502;50.678;7.172;2023-08-08T23:45:17;15.00;99.90
24382;DHT22;12502;50.678;7.172;2023-08-08T23:55:32;15.10;99.90
